createdAt,value
2017-05-26T00:01:25.418Z,4.54
2017-05-26T00:03:53.718Z,4.06
2017-05-26T00:06:22.663Z,3.20
2017-05-26T00:08:50.979Z,3.90
2017-05-26T00:11:19.350Z,3.80
2017-05-26T00:13:47.383Z,4.02
2017-05-26T00:16:15.344Z,3.96
2017-05-26T00:18:43.279Z,4.18
2017-05-26T00:21:12.081Z,3.96
2017-05-26T00:23:40.395Z,4.40
2017-05-26T00:26:08.701Z,3.42
2017-05-26T00:28:37.803Z,4.50
2017-05-26T00:31:06.105Z,3.68
2017-05-26T00:33:34.440Z,3.68
2017-05-26T00:36:02.792Z,4.14
2017-05-26T00:38:31.105Z,4.24
2017-05-26T00:40:59.035Z,4.10
2017-05-26T00:43:27.549Z,4.22
2017-05-26T00:45:56.008Z,3.96
2017-05-26T00:48:23.958Z,4.18
2017-05-26T00:50:53.367Z,3.80
2017-05-26T00:53:22.246Z,3.82
2017-05-26T00:55:51.166Z,4.44
2017-05-26T00:58:19.516Z,4.52
2017-05-26T01:00:47.450Z,4.24
2017-05-26T01:03:15.453Z,4.38
2017-05-26T01:05:44.935Z,4.02
2017-05-26T01:08:13.636Z,4.96
2017-05-26T01:10:41.946Z,4.30
2017-05-26T01:13:10.290Z,4.50
2017-05-26T01:15:38.605Z,4.52
2017-05-26T01:18:07.487Z,4.90
2017-05-26T01:20:36.524Z,4.70
2017-05-26T01:23:05.208Z,4.50
2017-05-26T01:25:33.130Z,5.20
2017-05-26T01:28:01.490Z,5.68
2017-05-26T01:30:30.536Z,5.32
2017-05-26T01:32:59.042Z,5.06
2017-05-26T01:35:28.007Z,5.48
2017-05-26T01:37:57.074Z,5.46
2017-05-26T01:40:25.043Z,4.90
2017-05-26T01:42:53.391Z,5.10
2017-05-26T01:45:21.328Z,5.52
2017-05-26T01:47:49.260Z,5.28
2017-05-26T01:50:17.607Z,5.24
2017-05-26T01:52:45.943Z,5.40
2017-05-26T01:55:13.925Z,5.68
2017-05-26T01:57:42.304Z,5.18
2017-05-26T02:00:10.617Z,4.90
2017-05-26T02:02:38.927Z,5.26
2017-05-26T02:05:06.938Z,5.02
2017-05-26T02:07:35.249Z,5.42
2017-05-26T02:10:03.555Z,5.42
2017-05-26T02:12:32.227Z,6.48
2017-05-26T02:15:00.550Z,6.02
2017-05-26T02:17:28.881Z,6.02
2017-05-26T02:19:56.920Z,6.56
2017-05-26T02:22:24.861Z,6.12
2017-05-26T02:24:53.920Z,6.24
2017-05-26T02:27:22.991Z,6.36
2017-05-26T02:29:51.305Z,6.58
2017-05-26T02:32:19.615Z,7.00
2017-05-26T02:34:48.543Z,6.94
2017-05-26T02:37:16.847Z,6.28
2017-05-26T02:39:45.742Z,7.30
2017-05-26T02:42:14.606Z,6.50
2017-05-26T02:44:42.539Z,6.96
2017-05-26T02:47:10.839Z,6.70
2017-05-26T02:49:39.323Z,7.18
2017-05-26T02:52:07.251Z,6.68
2017-05-26T02:54:34.793Z,6.92
2017-05-26T02:57:03.163Z,7.48
2017-05-26T02:59:32.929Z,7.56
2017-05-26T03:02:01.262Z,6.92
2017-05-26T03:04:29.265Z,7.34
2017-05-26T03:06:57.246Z,7.26
2017-05-26T03:09:25.248Z,7.56
2017-05-26T03:11:53.641Z,6.62
2017-05-26T03:14:21.721Z,7.14
2017-05-26T03:16:50.626Z,7.24
2017-05-26T03:19:19.886Z,7.46
2017-05-26T03:21:48.931Z,8.32
2017-05-26T03:24:17.810Z,7.52
2017-05-26T03:26:46.543Z,7.86
2017-05-26T03:29:14.912Z,6.50
2017-05-26T03:31:43.242Z,7.66
2017-05-26T03:34:11.223Z,7.46
2017-05-26T03:36:40.174Z,8.38
2017-05-26T03:39:08.475Z,8.40
2017-05-26T03:41:36.460Z,8.30
2017-05-26T03:44:04.763Z,7.50
2017-05-26T03:46:32.695Z,9.02
2017-05-26T03:49:01.423Z,8.76
2017-05-26T03:51:29.739Z,8.00
2017-05-26T03:53:58.068Z,8.70
2017-05-26T03:56:27.025Z,7.64
2017-05-26T03:58:55.743Z,8.62
2017-05-26T04:01:24.054Z,8.48
2017-05-26T04:03:52.948Z,9.34
2017-05-26T04:06:21.858Z,9.02
2017-05-26T04:08:50.531Z,9.02
2017-05-26T04:11:18.927Z,9.18
2017-05-26T04:13:46.881Z,8.50
2017-05-26T04:16:15.215Z,10.86
2017-05-26T04:18:43.919Z,9.38
2017-05-26T04:21:12.806Z,8.12
2017-05-26T04:23:41.694Z,9.66
2017-05-26T04:26:10.443Z,10.10
2017-05-26T04:28:38.840Z,10.58
2017-05-26T04:31:06.788Z,9.78
2017-05-26T04:33:34.795Z,9.36
2017-05-26T04:36:03.095Z,9.58
2017-05-26T04:38:31.399Z,9.56
2017-05-26T04:40:59.791Z,9.18
2017-05-26T04:43:28.125Z,9.72
2017-05-26T04:45:56.090Z,9.60
2017-05-26T04:48:24.080Z,10.18
2017-05-26T04:50:52.382Z,10.30
2017-05-26T04:53:20.685Z,11.82
2017-05-26T04:55:49.036Z,9.54
2017-05-26T04:58:18.124Z,9.22
2017-05-26T05:00:46.127Z,11.42
2017-05-26T05:03:14.429Z,9.30
2017-05-26T05:05:42.371Z,11.30
2017-05-26T05:08:10.372Z,10.75
2017-05-26T05:10:38.634Z,10.38
2017-05-26T05:13:06.575Z,10.58
2017-05-26T05:15:34.887Z,12.26
2017-05-26T05:18:03.614Z,11.06
2017-05-26T05:20:31.932Z,10.00
2017-05-26T05:23:00.247Z,10.94
2017-05-26T05:25:28.642Z,9.82
2017-05-26T05:27:57.729Z,10.92
2017-05-26T05:30:26.042Z,9.80
2017-05-26T05:32:54.548Z,8.66
2017-05-26T05:35:22.507Z,9.50
2017-05-26T05:37:51.184Z,10.72
2017-05-26T05:40:19.167Z,8.68
2017-05-26T05:42:47.835Z,8.48
2017-05-26T05:45:16.164Z,9.30
2017-05-26T05:47:44.147Z,9.08
2017-05-26T05:50:12.451Z,8.14
2017-05-26T05:52:40.383Z,9.84
2017-05-26T05:55:09.643Z,8.96
2017-05-26T05:57:38.779Z,7.80
2017-05-26T06:00:06.710Z,7.36
2017-05-26T06:02:35.072Z,7.44
2017-05-26T06:05:03.009Z,7.88
2017-05-26T06:07:31.682Z,8.08
2017-05-26T06:10:00.062Z,8.32
2017-05-26T06:12:28.022Z,7.50
2017-05-26T06:14:56.365Z,7.12
2017-05-26T06:17:24.730Z,8.06
2017-05-26T06:19:53.035Z,7.64
2017-05-26T06:22:20.963Z,7.10
2017-05-26T06:24:50.098Z,7.78
2017-05-26T06:27:18.014Z,6.80
2017-05-26T06:29:45.957Z,7.38
2017-05-26T06:32:14.162Z,6.68
2017-05-26T06:34:42.259Z,5.80
2017-05-26T06:37:10.187Z,6.42
2017-05-26T06:39:38.530Z,6.38
2017-05-26T06:42:06.830Z,5.78
2017-05-26T06:44:35.123Z,5.72
2017-05-26T06:47:03.466Z,5.22
2017-05-26T06:49:31.412Z,5.50
2017-05-26T06:52:00.095Z,4.68
2017-05-26T06:54:28.076Z,5.20
2017-05-26T06:56:56.415Z,5.54
2017-05-26T06:59:24.383Z,4.32
2017-05-26T07:01:52.723Z,4.90
2017-05-26T07:04:21.865Z,3.92
2017-05-26T07:06:49.795Z,4.02
2017-05-26T07:09:17.775Z,3.70
2017-05-26T07:11:46.098Z,4.24
2017-05-26T07:14:14.991Z,3.86
2017-05-26T07:16:43.375Z,3.72
2017-05-26T07:19:12.179Z,3.78
2017-05-26T07:21:40.474Z,3.98
2017-05-26T07:24:08.815Z,3.56
2017-05-26T07:26:37.508Z,3.10
2017-05-26T07:29:05.827Z,3.20
2017-05-26T07:31:34.171Z,3.32
2017-05-26T07:34:03.051Z,3.08
2017-05-26T07:36:30.994Z,3.74
2017-05-26T07:38:59.350Z,3.38
2017-05-26T07:41:27.292Z,2.74
2017-05-26T07:43:56.461Z,3.50
2017-05-26T07:46:25.068Z,2.88
2017-05-26T07:48:54.128Z,2.98
2017-05-26T07:51:22.449Z,3.38
2017-05-26T07:53:50.483Z,2.82
2017-05-26T07:56:18.904Z,3.60
2017-05-26T07:58:47.225Z,3.08
2017-05-26T08:01:16.355Z,3.28
2017-05-26T08:03:44.291Z,2.60
2017-05-26T08:06:12.591Z,3.02
2017-05-26T08:08:40.943Z,3.50
2017-05-26T08:11:09.614Z,3.16
2017-05-26T08:13:37.911Z,3.00
2017-05-26T08:16:06.999Z,2.86
2017-05-26T08:18:34.939Z,3.72
2017-05-26T08:21:03.247Z,3.08
2017-05-26T08:23:31.241Z,2.56
2017-05-26T08:25:59.551Z,3.40
2017-05-26T08:28:27.504Z,2.86
2017-05-26T08:30:55.490Z,2.50
2017-05-26T08:33:23.825Z,3.22
2017-05-26T08:35:52.127Z,2.94
2017-05-26T08:38:20.995Z,3.22
2017-05-26T08:40:50.060Z,2.84
2017-05-26T08:43:17.986Z,2.88
2017-05-26T08:45:46.366Z,3.22
2017-05-26T08:48:14.675Z,3.42
2017-05-26T08:50:42.606Z,2.80
2017-05-26T08:53:10.957Z,2.66
2017-05-26T08:55:39.328Z,2.92
2017-05-26T08:58:07.627Z,2.76
2017-05-26T09:00:35.734Z,2.68
2017-05-26T09:03:04.031Z,3.42
2017-05-26T09:05:32.326Z,3.24
2017-05-26T09:08:00.315Z,2.94
2017-05-26T09:10:29.372Z,2.52
2017-05-26T09:12:57.359Z,2.66
2017-05-26T09:15:25.729Z,2.30
2017-05-26T09:17:54.047Z,2.52
2017-05-26T09:20:23.383Z,2.74
2017-05-26T09:22:52.059Z,3.04
2017-05-26T09:25:20.059Z,3.84
2017-05-26T09:27:48.371Z,6.82
2017-05-26T09:30:16.813Z,7.90
2017-05-26T09:32:45.253Z,10.44
2017-05-26T09:35:13.189Z,9.84
2017-05-26T09:37:41.172Z,3.40
2017-05-26T09:40:10.055Z,4.14
2017-05-26T09:42:38.723Z,3.42
2017-05-26T09:45:07.815Z,3.28
2017-05-26T09:47:36.128Z,3.16
2017-05-26T09:50:05.171Z,2.60
2017-05-26T09:52:33.208Z,2.10
2017-05-26T09:55:01.542Z,2.42
2017-05-26T09:57:29.542Z,2.76
2017-05-26T09:59:58.046Z,2.34
2017-05-26T10:02:26.980Z,2.96
2017-05-26T10:04:55.703Z,2.82
2017-05-26T10:07:24.431Z,2.38
2017-05-26T10:09:52.727Z,2.60
2017-05-26T10:12:21.023Z,2.36
2017-05-26T10:14:49.368Z,2.56
2017-05-26T10:17:16.914Z,2.16
2017-05-26T10:19:45.226Z,2.10
2017-05-26T10:22:13.577Z,2.44
2017-05-26T10:24:41.508Z,2.22
2017-05-26T10:27:09.807Z,2.32
2017-05-26T10:29:38.923Z,2.18
2017-05-26T10:32:06.865Z,2.38
2017-05-26T10:34:35.175Z,1.96
2017-05-26T10:37:03.147Z,2.16
2017-05-26T10:39:31.471Z,2.52
2017-05-26T10:41:59.427Z,2.00
2017-05-26T10:44:28.158Z,1.98
2017-05-26T10:46:56.485Z,2.20
2017-05-26T10:49:24.803Z,2.00
2017-05-26T10:51:53.742Z,2.00
2017-05-26T10:54:22.424Z,2.08
2017-05-26T10:56:50.366Z,2.32
2017-05-26T10:59:19.032Z,2.08
2017-05-26T11:01:46.972Z,1.62
2017-05-26T11:04:15.299Z,2.38
2017-05-26T11:06:44.739Z,2.86
2017-05-26T11:09:12.672Z,2.40
2017-05-26T11:11:40.603Z,1.90
2017-05-26T11:14:08.954Z,2.22
2017-05-26T11:16:45.946Z,1.86
2017-05-26T11:19:15.068Z,2.32
2017-05-26T11:21:43.015Z,1.84
2017-05-26T11:24:11.310Z,1.66
2017-05-26T11:26:39.283Z,2.30
2017-05-26T11:29:07.583Z,1.90
2017-05-26T11:31:35.884Z,2.62
2017-05-26T11:34:03.871Z,1.86
2017-05-26T11:36:32.176Z,1.70
2017-05-26T11:39:00.509Z,1.98
2017-05-26T11:41:28.887Z,2.40
2017-05-26T11:43:58.879Z,2.50
2017-05-26T11:46:27.199Z,1.60
2017-05-26T11:48:56.163Z,2.22
2017-05-26T11:51:24.478Z,2.46
2017-05-26T11:53:52.783Z,2.24
2017-05-26T11:56:20.758Z,1.98
2017-05-26T11:58:49.642Z,2.32
2017-05-26T12:01:18.530Z,1.76
2017-05-26T12:03:47.270Z,2.16
2017-05-26T12:06:15.240Z,2.00
2017-05-26T12:08:43.182Z,1.96
2017-05-26T12:11:11.534Z,2.38
2017-05-26T12:13:39.839Z,2.14
2017-05-26T12:16:07.779Z,2.20
2017-05-26T12:18:36.135Z,2.64
2017-05-26T12:21:04.435Z,1.92
2017-05-26T12:23:33.315Z,1.74
2017-05-26T12:26:02.262Z,1.70
2017-05-26T12:28:31.166Z,1.90
2017-05-26T12:31:00.211Z,2.08
2017-05-26T12:33:28.587Z,2.08
2017-05-26T12:35:56.920Z,1.96
2017-05-26T12:38:26.375Z,1.82
2017-05-26T12:40:55.483Z,2.06
2017-05-26T12:43:24.415Z,2.00
2017-05-26T12:45:53.091Z,1.40
2017-05-26T12:48:21.448Z,2.30
2017-05-26T12:50:49.754Z,1.60
2017-05-26T12:53:17.691Z,1.88
2017-05-26T12:55:45.686Z,1.88
2017-05-26T12:58:14.015Z,2.50
2017-05-26T13:00:41.972Z,1.92
2017-05-26T13:03:10.327Z,1.82
2017-05-26T13:05:38.631Z,1.96
2017-05-26T13:08:06.931Z,1.96
2017-05-26T13:10:35.279Z,1.86
2017-05-26T13:13:04.162Z,1.90
2017-05-26T13:15:32.467Z,1.98
2017-05-26T13:18:00.838Z,1.94
2017-05-26T13:20:29.155Z,2.44
2017-05-26T13:22:56.718Z,2.00
2017-05-26T13:25:24.708Z,1.94
2017-05-26T13:27:52.639Z,2.26
2017-05-26T13:30:20.955Z,2.40
2017-05-26T13:32:49.299Z,2.08
2017-05-26T13:35:18.338Z,2.20
2017-05-26T13:37:46.662Z,2.44
2017-05-26T13:40:16.076Z,2.20
2017-05-26T13:42:44.032Z,2.36
2017-05-26T13:45:12.344Z,1.96
2017-05-26T13:47:41.003Z,2.36
2017-05-26T13:50:11.191Z,2.12
2017-05-26T13:52:39.126Z,2.00
2017-05-26T13:55:07.366Z,1.84
2017-05-26T13:57:36.034Z,2.62
2017-05-26T14:00:04.330Z,2.80
2017-05-26T14:02:32.340Z,2.56
2017-05-26T14:05:00.665Z,2.40
2017-05-26T14:07:28.637Z,2.52
2017-05-26T14:09:56.680Z,2.26
2017-05-26T14:12:24.990Z,2.76
2017-05-26T14:14:52.982Z,3.22
2017-05-26T14:17:21.331Z,2.30
2017-05-26T14:19:49.643Z,2.56
2017-05-26T14:22:18.083Z,2.12
2017-05-26T14:24:46.139Z,2.10
2017-05-26T14:27:14.096Z,2.06
2017-05-26T14:29:42.452Z,2.00
2017-05-26T14:32:10.799Z,2.32
2017-05-26T14:34:38.735Z,2.52
2017-05-26T14:37:07.646Z,2.94
2017-05-26T14:39:36.000Z,2.22
2017-05-26T14:42:04.307Z,2.30
2017-05-26T14:44:32.266Z,2.70
2017-05-26T14:47:01.032Z,2.32
2017-05-26T14:49:29.360Z,2.50
2017-05-26T14:51:57.687Z,2.56
2017-05-26T14:54:26.063Z,2.40
2017-05-26T14:56:54.738Z,2.20
2017-05-26T14:59:23.787Z,2.80
2017-05-26T15:01:52.163Z,3.14
2017-05-26T15:04:20.490Z,2.82
2017-05-26T15:06:49.377Z,2.82
2017-05-26T15:09:18.310Z,3.36
2017-05-26T15:11:46.256Z,2.72
2017-05-26T15:14:14.574Z,2.58
2017-05-26T15:16:43.276Z,2.82
2017-05-26T15:19:12.078Z,2.88
2017-05-26T15:21:40.109Z,2.70
2017-05-26T15:24:08.487Z,2.94
2017-05-26T15:26:37.289Z,3.20
2017-05-26T15:29:06.436Z,2.66
2017-05-26T15:31:34.432Z,3.06
2017-05-26T15:34:02.384Z,2.88
2017-05-26T15:36:31.074Z,2.76
2017-05-26T15:38:59.671Z,3.52
2017-05-26T15:41:27.992Z,2.78
2017-05-26T15:43:56.324Z,2.96
2017-05-26T15:46:24.307Z,3.16
2017-05-26T15:48:53.190Z,2.70
2017-05-26T15:51:22.067Z,2.40
2017-05-26T15:53:50.508Z,3.12
2017-05-26T15:56:18.491Z,2.82
2017-05-26T15:58:46.819Z,3.00
2017-05-26T16:01:15.511Z,2.82
2017-05-26T16:03:43.858Z,2.96
2017-05-26T16:06:12.167Z,3.76
2017-05-26T16:08:40.152Z,2.48
2017-05-26T16:11:08.087Z,2.76
2017-05-26T16:13:36.387Z,3.04
2017-05-26T16:16:04.694Z,3.10
2017-05-26T16:18:32.659Z,2.94
2017-05-26T16:21:00.607Z,3.18
2017-05-26T16:23:28.991Z,3.36
2017-05-26T16:25:57.316Z,3.48
2017-05-26T16:28:26.026Z,3.46
2017-05-26T16:30:54.958Z,3.20
2017-05-26T16:33:23.256Z,2.74
2017-05-26T16:35:51.283Z,2.60
2017-05-26T16:38:19.643Z,3.20
2017-05-26T16:40:47.578Z,3.06
2017-05-26T16:43:15.507Z,3.80
2017-05-26T16:45:43.859Z,3.50
2017-05-26T16:48:11.802Z,3.48
2017-05-26T16:50:40.715Z,7.72
2017-05-26T16:53:09.947Z,3.52
2017-05-26T16:55:38.854Z,3.56
2017-05-26T16:58:06.788Z,3.66
2017-05-26T17:00:35.444Z,3.44
2017-05-26T17:03:03.784Z,3.82
2017-05-26T17:05:32.735Z,3.28
2017-05-26T17:08:01.124Z,4.24
2017-05-26T17:10:29.482Z,3.66
2017-05-26T17:12:57.933Z,3.20
2017-05-26T17:15:25.985Z,4.00
2017-05-26T17:17:53.927Z,4.00
2017-05-26T17:20:22.235Z,3.46
2017-05-26T17:22:50.632Z,3.62
2017-05-26T17:25:19.321Z,3.06
2017-05-26T17:27:47.639Z,3.70
2017-05-26T17:30:15.987Z,3.64
2017-05-26T17:32:43.918Z,4.18
2017-05-26T17:35:12.216Z,3.96
2017-05-26T17:37:40.208Z,3.60
2017-05-26T17:40:08.140Z,4.12
2017-05-26T17:42:36.451Z,3.48
2017-05-26T17:45:05.175Z,3.90
2017-05-26T17:47:33.493Z,3.58
2017-05-26T17:50:01.811Z,3.80
2017-05-26T17:52:29.832Z,3.30
2017-05-26T17:54:58.159Z,3.70
2017-05-26T17:57:26.847Z,3.14
2017-05-26T17:59:56.007Z,3.70
2017-05-26T18:02:24.331Z,3.86
2017-05-26T18:04:52.290Z,3.30
2017-05-26T18:07:21.191Z,3.52
2017-05-26T18:09:49.491Z,3.18
2017-05-26T18:12:17.811Z,3.86
2017-05-26T18:14:46.459Z,3.24
2017-05-26T18:17:14.767Z,3.58
2017-05-26T18:19:43.110Z,3.48
2017-05-26T18:22:12.555Z,2.62
2017-05-26T18:24:40.855Z,3.94
2017-05-26T18:27:09.155Z,3.28
2017-05-26T18:29:37.503Z,3.82
2017-05-26T18:32:05.805Z,2.96
2017-05-26T18:34:34.719Z,2.80
2017-05-26T18:37:02.751Z,3.04
2017-05-26T18:39:30.709Z,2.90
2017-05-26T18:41:59.069Z,2.84
2017-05-26T18:44:27.797Z,3.08
2017-05-26T18:46:56.573Z,3.00
2017-05-26T18:49:25.415Z,3.16
2017-05-26T18:51:53.456Z,3.20
2017-05-26T18:54:21.402Z,3.00
2017-05-26T18:56:50.005Z,3.02
2017-05-26T18:59:18.628Z,2.82
2017-05-26T19:01:46.962Z,3.02
2017-05-26T19:04:15.324Z,3.20
2017-05-26T19:06:44.450Z,3.46
2017-05-26T19:09:12.760Z,3.22
2017-05-26T19:11:41.082Z,3.26
2017-05-26T19:14:09.119Z,2.78
2017-05-26T19:16:37.055Z,3.02
2017-05-26T19:19:05.365Z,3.06
2017-05-26T19:21:33.730Z,2.92
2017-05-26T19:24:02.097Z,3.64
2017-05-26T19:26:31.113Z,3.46
2017-05-26T19:28:59.148Z,2.84
2017-05-26T19:31:27.120Z,3.16
2017-05-26T19:33:56.172Z,3.56
2017-05-26T19:36:24.528Z,3.02
2017-05-26T19:38:53.598Z,3.20
2017-05-26T19:41:21.623Z,3.60
2017-05-26T19:43:49.615Z,2.90
2017-05-26T19:46:17.920Z,3.44
2017-05-26T19:48:46.238Z,3.40
2017-05-26T19:51:14.222Z,3.96
2017-05-26T19:53:43.118Z,3.88
2017-05-26T19:56:12.002Z,3.12
2017-05-26T19:58:40.659Z,3.08
2017-05-26T20:01:09.344Z,2.84
2017-05-26T20:03:37.658Z,3.32
2017-05-26T20:06:06.020Z,3.28
2017-05-26T20:08:35.095Z,3.42
2017-05-26T20:11:03.047Z,2.78
2017-05-26T20:13:31.737Z,3.54
2017-05-26T20:16:00.092Z,3.46
2017-05-26T20:18:27.643Z,2.92
2017-05-26T20:20:56.373Z,3.22
2017-05-26T20:23:24.685Z,2.98
2017-05-26T20:25:55.819Z,3.30
2017-05-26T20:28:23.995Z,2.90
2017-05-26T20:30:51.928Z,3.20
2017-05-26T20:33:19.862Z,3.26
2017-05-26T20:35:48.675Z,3.30
2017-05-26T20:38:16.983Z,3.24
2017-05-26T20:40:44.915Z,3.48
2017-05-26T20:43:13.264Z,3.28
2017-05-26T20:45:42.192Z,3.42
2017-05-26T20:48:10.500Z,3.00
2017-05-26T20:50:38.852Z,2.72
2017-05-26T20:53:06.793Z,2.80
2017-05-26T20:55:35.140Z,2.54
2017-05-26T20:58:03.528Z,3.26
2017-05-26T21:00:31.867Z,3.14
2017-05-26T21:03:00.332Z,2.90
2017-05-26T21:05:29.299Z,3.28
2017-05-26T21:07:57.616Z,3.16
2017-05-26T21:10:25.939Z,2.88
2017-05-26T21:12:54.347Z,3.18
2017-05-26T21:15:22.661Z,3.02
2017-05-26T21:17:50.621Z,3.56
2017-05-26T21:20:18.613Z,3.04
2017-05-26T21:22:47.507Z,3.08
2017-05-26T21:25:16.382Z,2.32
2017-05-26T21:27:45.104Z,3.36
2017-05-26T21:30:13.775Z,3.04
2017-05-26T21:32:43.310Z,3.40
2017-05-26T21:35:12.523Z,3.54
2017-05-26T21:37:40.840Z,3.12
2017-05-26T21:40:08.788Z,2.96
2017-05-26T21:42:37.227Z,3.24
2017-05-26T21:45:05.190Z,3.20
2017-05-26T21:47:33.208Z,2.98
2017-05-26T21:50:01.725Z,2.72
2017-05-26T21:52:30.069Z,3.30
2017-05-26T21:54:58.054Z,3.16
2017-05-26T21:57:26.804Z,3.22
2017-05-26T21:59:55.428Z,3.52
2017-05-26T22:02:25.075Z,2.98
2017-05-26T22:04:53.473Z,2.96
2017-05-26T22:07:22.227Z,2.52
2017-05-26T22:09:50.176Z,3.54
2017-05-26T22:12:19.769Z,3.72
2017-05-26T22:14:48.451Z,3.36
2017-05-26T22:17:16.775Z,3.22
2017-05-26T22:19:44.772Z,3.58
2017-05-26T22:22:12.715Z,3.32
2017-05-26T22:24:41.599Z,3.52
2017-05-26T22:27:09.943Z,3.26
2017-05-26T22:29:38.827Z,2.92
2017-05-26T22:32:07.714Z,3.20
2017-05-26T22:34:35.792Z,3.02
2017-05-26T22:37:04.103Z,4.26
2017-05-26T22:39:32.048Z,3.64
2017-05-26T22:42:00.797Z,3.32
2017-05-26T22:44:28.831Z,3.48
2017-05-26T22:46:56.866Z,3.80
2017-05-26T22:49:25.408Z,3.64
2017-05-26T22:51:54.375Z,3.94
2017-05-26T22:54:22.307Z,3.34
2017-05-26T22:56:50.646Z,3.12
2017-05-26T22:59:18.587Z,4.30
2017-05-26T23:01:46.527Z,3.20
2017-05-26T23:04:14.924Z,2.94
2017-05-26T23:06:43.752Z,3.54
2017-05-26T23:09:12.650Z,3.28
2017-05-26T23:11:41.290Z,4.22
2017-05-26T23:14:09.229Z,4.24
2017-05-26T23:16:37.158Z,3.50
2017-05-26T23:19:05.902Z,3.92
2017-05-26T23:21:34.205Z,3.42
2017-05-26T23:24:02.151Z,4.10
2017-05-26T23:26:30.567Z,3.48
2017-05-26T23:28:58.515Z,4.00
2017-05-26T23:31:26.863Z,3.96
2017-05-26T23:33:55.913Z,3.46
2017-05-26T23:36:24.241Z,3.72
2017-05-26T23:38:52.183Z,3.88
2017-05-26T23:41:20.538Z,3.70
2017-05-26T23:43:48.467Z,3.70
2017-05-26T23:46:16.816Z,4.16
2017-05-26T23:48:44.810Z,3.68
2017-05-26T23:51:13.139Z,4.36
2017-05-26T23:53:41.141Z,4.02
2017-05-26T23:56:09.142Z,3.12
2017-05-26T23:58:37.830Z,3.82
